createdAt,value
2023-03-24T00:02:17.679Z,2.15
2023-03-24T00:04:46.467Z,2.15
2023-03-24T00:07:17.215Z,2.47
2023-03-24T00:09:48.284Z,2.47
2023-03-24T00:12:18.993Z,2.10
2023-03-24T00:14:47.582Z,2.83
2023-03-24T00:17:17.527Z,2.17
2023-03-24T00:19:46.614Z,2.22
2023-03-24T00:22:18.364Z,1.92
2023-03-24T00:24:47.407Z,2.15
2023-03-24T00:27:17.778Z,1.88
2023-03-24T00:29:49.740Z,1.90
2023-03-24T00:32:18.376Z,2.00
2023-03-24T00:34:49.219Z,1.70
2023-03-24T00:37:17.820Z,2.17
2023-03-24T00:39:46.408Z,2.30
2023-03-24T00:42:17.720Z,2.20
2023-03-24T00:44:47.529Z,1.77
2023-03-24T00:47:17.971Z,2.00
2023-03-24T00:49:46.428Z,2.35
2023-03-24T00:52:18.205Z,2.63
2023-03-24T00:54:49.173Z,2.88
2023-03-24T00:57:21.803Z,2.25
2023-03-24T00:59:52.177Z,2.45
2023-03-24T01:02:22.406Z,2.50
2023-03-24T01:04:54.250Z,2.70
2023-03-24T01:07:22.906Z,2.05
2023-03-24T01:09:57.657Z,2.22
2023-03-24T01:12:28.370Z,2.08
2023-03-24T01:14:59.166Z,2.45
2023-03-24T01:17:29.594Z,2.28
2023-03-24T01:20:01.010Z,2.25
2023-03-24T01:22:30.664Z,2.28
2023-03-24T01:25:01.369Z,1.83
2023-03-24T01:27:29.935Z,2.00
2023-03-24T01:30:04.165Z,2.50
2023-03-24T01:32:35.183Z,2.45
2023-03-24T01:35:03.854Z,2.08
2023-03-24T01:37:32.466Z,1.98
2023-03-24T01:40:01.178Z,1.40
2023-03-24T01:42:30.200Z,1.80
2023-03-24T01:45:02.560Z,2.00
2023-03-24T01:47:34.816Z,1.83
2023-03-24T01:50:05.324Z,1.50
2023-03-24T01:52:34.750Z,1.73
2023-03-24T01:55:08.529Z,1.58
2023-03-24T01:57:40.700Z,1.77
2023-03-24T02:00:15.599Z,1.50
2023-03-24T02:03:09.976Z,1.02
2023-03-24T02:05:49.832Z,1.60
2023-03-24T02:08:22.193Z,0.90
2023-03-24T02:10:51.446Z,0.88
2023-03-24T02:13:20.201Z,0.80
2023-03-24T02:15:54.594Z,0.70
2023-03-24T02:18:27.865Z,0.88
2023-03-24T02:21:28.841Z,1.00
2023-03-24T02:24:03.253Z,1.13
2023-03-24T02:26:40.938Z,0.80
2023-03-24T02:29:29.304Z,0.50
2023-03-24T02:32:11.460Z,0.70
2023-03-24T02:35:03.939Z,0.73
2023-03-24T02:37:56.147Z,1.13
2023-03-24T02:40:28.628Z,0.70
2023-03-24T02:43:10.211Z,0.50
2023-03-24T02:45:40.913Z,0.73
2023-03-24T02:48:20.285Z,1.10
2023-03-24T02:50:52.025Z,0.90
2023-03-24T02:53:26.840Z,1.23
2023-03-24T02:56:23.017Z,1.10
2023-03-24T02:59:00.159Z,0.90
2023-03-24T03:01:32.578Z,1.50
2023-03-24T03:04:23.938Z,0.65
2023-03-24T03:06:58.775Z,1.38
2023-03-24T03:09:29.485Z,1.63
2023-03-24T03:12:03.811Z,1.92
2023-03-24T03:14:34.352Z,2.45
2023-03-24T03:17:05.319Z,1.63
2023-03-24T03:19:35.009Z,1.60
2023-03-24T03:22:07.995Z,2.08
2023-03-24T03:24:51.448Z,1.83
2023-03-24T03:27:23.232Z,1.50
2023-03-24T03:29:55.136Z,1.60
2023-03-24T03:32:28.485Z,1.00
2023-03-24T03:34:59.012Z,1.33
2023-03-24T03:37:34.290Z,1.30
2023-03-24T03:40:06.142Z,1.73
2023-03-24T03:42:40.250Z,1.60
2023-03-24T03:45:14.249Z,0.80
2023-03-24T03:47:43.408Z,1.23
2023-03-24T03:50:14.561Z,1.15
2023-03-24T03:52:44.755Z,1.23
2023-03-24T03:55:14.868Z,1.25
2023-03-24T03:57:51.136Z,1.52
2023-03-24T04:00:36.878Z,1.33
2023-03-24T04:03:34.414Z,1.30
2023-03-24T04:06:04.564Z,1.92
2023-03-24T04:08:40.343Z,1.52
2023-03-24T04:11:42.514Z,1.80
2023-03-24T04:14:59.796Z,1.58
2023-03-24T04:17:54.991Z,1.70
2023-03-24T04:20:48.584Z,1.60
2023-03-24T04:23:26.465Z,1.85
2023-03-24T04:26:01.612Z,1.55
2023-03-24T04:28:35.096Z,2.13
2023-03-24T04:31:09.547Z,2.13
2023-03-24T04:33:43.489Z,2.28
2023-03-24T04:36:19.317Z,2.40
2023-03-24T04:39:10.143Z,1.98
2023-03-24T04:41:47.510Z,1.17
2023-03-24T04:44:33.081Z,2.15
2023-03-24T04:47:21.779Z,2.85
2023-03-24T04:50:11.431Z,2.25
2023-03-24T04:52:41.474Z,1.80
2023-03-24T04:55:28.567Z,2.50
2023-03-24T04:58:00.844Z,2.08
2023-03-24T05:00:29.151Z,2.03
2023-03-24T05:02:57.596Z,2.15
2023-03-24T05:05:30.984Z,3.22
2023-03-24T05:08:00.211Z,1.95
2023-03-24T05:10:28.590Z,2.10
2023-03-24T05:13:01.395Z,2.13
2023-03-24T05:15:49.162Z,2.33
2023-03-24T05:18:32.238Z,1.98
2023-03-24T05:21:02.318Z,1.83
2023-03-24T05:23:30.970Z,2.38
2023-03-24T05:26:00.266Z,2.30
2023-03-24T05:28:32.097Z,1.90
2023-03-24T05:31:01.594Z,2.97
2023-03-24T05:33:41.354Z,1.83
2023-03-24T05:36:17.054Z,1.95
2023-03-24T05:38:55.288Z,2.90
2023-03-24T05:41:26.960Z,1.67
2023-03-24T05:43:55.556Z,1.92
2023-03-24T05:46:26.431Z,2.22
2023-03-24T05:48:55.701Z,1.73
2023-03-24T05:51:30.940Z,2.17
2023-03-24T05:54:06.352Z,1.70
2023-03-24T05:56:43.509Z,2.20
2023-03-24T05:59:34.418Z,1.60
2023-03-24T06:02:26.262Z,1.80
2023-03-24T06:05:01.554Z,2.08
2023-03-24T06:07:32.414Z,2.08
2023-03-24T06:10:03.343Z,1.98
2023-03-24T06:12:40.809Z,2.38
2023-03-24T06:15:10.921Z,2.40
2023-03-24T06:17:43.275Z,2.05
2023-03-24T06:20:24.513Z,2.22
2023-03-24T06:23:12.572Z,2.30
2023-03-24T06:25:53.749Z,2.30
2023-03-24T06:28:30.390Z,1.65
2023-03-24T06:31:06.527Z,2.63
2023-03-24T06:33:41.579Z,1.33
2023-03-24T06:36:11.883Z,2.83
2023-03-24T06:38:49.239Z,2.33
2023-03-24T06:41:27.152Z,1.80
2023-03-24T06:44:01.243Z,1.77
2023-03-24T06:46:31.042Z,1.70
2023-03-24T06:48:59.998Z,2.00
2023-03-24T06:51:28.825Z,1.95
2023-03-24T06:54:03.827Z,2.30
2023-03-24T06:56:32.733Z,1.88
2023-03-24T06:59:04.890Z,2.25
2023-03-24T07:01:38.019Z,1.63
2023-03-24T07:04:28.163Z,2.80
2023-03-24T07:07:19.630Z,1.75
2023-03-24T07:10:15.870Z,1.98
2023-03-24T07:12:44.310Z,2.22
2023-03-24T07:15:15.392Z,1.52
2023-03-24T07:17:44.601Z,1.88
2023-03-24T07:20:28.724Z,1.92
2023-03-24T07:23:09.510Z,2.92
2023-03-24T07:26:05.584Z,2.55
2023-03-24T07:28:49.376Z,1.90
2023-03-24T07:31:41.052Z,2.15
2023-03-24T07:34:12.955Z,2.30
2023-03-24T07:36:44.312Z,2.10
2023-03-24T07:39:17.260Z,1.90
2023-03-24T07:41:49.485Z,2.75
2023-03-24T07:44:40.486Z,1.30
2023-03-24T07:47:13.450Z,2.10
2023-03-24T07:49:44.234Z,2.33
2023-03-24T07:52:13.507Z,2.08
2023-03-24T07:54:47.619Z,2.55
2023-03-24T07:57:37.955Z,1.95
2023-03-24T08:00:16.437Z,2.08
2023-03-24T08:02:49.105Z,2.03
2023-03-24T08:05:47.566Z,1.67
2023-03-24T08:08:31.145Z,2.63
2023-03-24T08:10:59.825Z,2.30
2023-03-24T08:13:29.643Z,1.98
2023-03-24T08:15:58.442Z,2.08
2023-03-24T08:18:27.003Z,3.60
2023-03-24T08:20:57.670Z,2.42
2023-03-24T08:23:26.317Z,1.85
2023-03-24T08:25:55.074Z,2.22
2023-03-24T08:28:23.634Z,2.20
2023-03-24T08:30:53.436Z,2.70
2023-03-24T08:33:24.416Z,1.52
2023-03-24T08:35:58.027Z,1.55
2023-03-24T08:38:30.612Z,1.65
2023-03-24T08:41:02.056Z,1.75
2023-03-24T08:43:31.935Z,1.55
2023-03-24T08:46:02.948Z,1.83
2023-03-24T08:48:38.380Z,1.88
2023-03-24T08:51:11.776Z,1.50
2023-03-24T08:53:41.431Z,1.73
2023-03-24T08:56:10.057Z,1.98
2023-03-24T08:58:41.000Z,2.10
2023-03-24T09:01:11.196Z,2.35
2023-03-24T09:03:41.910Z,2.35
2023-03-24T09:06:13.337Z,2.33
2023-03-24T09:08:41.824Z,2.10
2023-03-24T09:11:15.603Z,2.05
2023-03-24T09:13:47.477Z,2.08
2023-03-24T09:16:17.853Z,1.88
2023-03-24T09:18:47.616Z,1.48
2023-03-24T09:21:18.578Z,1.33
2023-03-24T09:23:47.016Z,1.70
2023-03-24T09:26:17.794Z,1.40
2023-03-24T09:28:46.253Z,1.77
2023-03-24T09:31:17.071Z,2.53
2023-03-24T09:33:46.948Z,1.98
2023-03-24T09:36:15.448Z,1.92
2023-03-24T09:38:44.187Z,1.30
2023-03-24T09:41:16.137Z,1.58
2023-03-24T09:43:51.327Z,1.70
2023-03-24T09:46:25.700Z,1.45
2023-03-24T09:48:56.772Z,1.65
2023-03-24T09:51:28.634Z,1.10
2023-03-24T09:54:01.725Z,1.77
2023-03-24T09:56:31.212Z,1.45
2023-03-24T09:59:05.163Z,2.03
2023-03-24T10:01:35.880Z,1.85
2023-03-24T10:04:09.235Z,1.77
2023-03-24T10:06:42.147Z,1.45
2023-03-24T10:09:17.150Z,1.67
2023-03-24T10:11:48.741Z,1.10
2023-03-24T10:14:23.814Z,2.42
2023-03-24T10:16:58.445Z,1.40
2023-03-24T10:19:34.080Z,1.50
2023-03-24T10:22:06.058Z,2.08
2023-03-24T10:24:38.431Z,1.92
2023-03-24T10:27:12.779Z,1.50
2023-03-24T10:29:41.695Z,1.55
2023-03-24T10:32:14.570Z,1.85
2023-03-24T10:34:46.113Z,1.98
2023-03-24T10:37:16.403Z,1.13
2023-03-24T10:39:45.391Z,2.42
2023-03-24T10:42:19.543Z,1.58
2023-03-24T10:44:48.759Z,2.08
2023-03-24T10:47:26.496Z,1.52
2023-03-24T10:49:59.451Z,1.55
2023-03-24T10:52:28.276Z,1.55
2023-03-24T10:54:58.412Z,1.85
2023-03-24T10:57:29.843Z,1.20
2023-03-24T10:59:59.888Z,1.85
2023-03-24T11:02:29.851Z,1.65
2023-03-24T11:05:02.594Z,1.88
2023-03-24T11:07:33.911Z,1.40
2023-03-24T11:10:04.196Z,1.27
2023-03-24T11:12:36.044Z,1.20
2023-03-24T11:15:21.371Z,1.75
2023-03-24T11:17:55.030Z,0.80
2023-03-24T11:20:27.565Z,1.63
2023-03-24T11:23:01.269Z,1.35
2023-03-24T11:25:34.321Z,1.40
2023-03-24T11:28:04.351Z,1.35
2023-03-24T11:30:38.521Z,1.90
2023-03-24T11:33:10.090Z,1.00
2023-03-24T11:35:43.014Z,1.25
2023-03-24T11:38:19.155Z,0.60
2023-03-24T11:40:59.690Z,0.80
2023-03-24T11:43:28.302Z,0.65
2023-03-24T11:46:01.080Z,1.23
2023-03-24T11:48:41.199Z,0.95
2023-03-24T11:51:12.880Z,1.10
2023-03-24T11:53:46.532Z,1.13
2023-03-24T11:56:19.788Z,0.90
2023-03-24T11:58:49.446Z,0.73
2023-03-24T12:01:26.267Z,0.80
2023-03-24T12:04:01.220Z,1.45
2023-03-24T12:06:37.913Z,0.80
2023-03-24T12:09:10.612Z,0.50
2023-03-24T12:11:46.969Z,0.95
2023-03-24T12:14:20.569Z,1.15
2023-03-24T12:16:56.556Z,0.90
2023-03-24T12:19:40.219Z,1.02
2023-03-24T12:22:17.117Z,1.30
2023-03-24T12:24:52.519Z,0.98
2023-03-24T12:27:28.677Z,1.23
2023-03-24T12:30:06.146Z,1.38
2023-03-24T12:32:53.911Z,1.17
2023-03-24T12:35:28.507Z,1.35
2023-03-24T12:38:06.924Z,1.25
2023-03-24T12:40:45.068Z,0.90
2023-03-24T12:43:26.891Z,0.98
2023-03-24T12:46:01.689Z,1.02
2023-03-24T12:48:43.465Z,1.25
2023-03-24T12:51:17.773Z,1.25
2023-03-24T12:53:54.852Z,0.77
2023-03-24T12:56:28.668Z,0.93
2023-03-24T12:59:01.676Z,1.10
2023-03-24T13:01:35.753Z,1.15
2023-03-24T13:04:09.498Z,1.20
2023-03-24T13:06:49.962Z,0.85
2023-03-24T13:09:28.334Z,1.00
2023-03-24T13:12:00.404Z,0.60
2023-03-24T13:14:34.243Z,1.10
2023-03-24T13:17:06.907Z,1.20
2023-03-24T13:19:41.319Z,1.75
2023-03-24T13:22:14.606Z,1.23
2023-03-24T13:24:44.726Z,1.30
2023-03-24T13:27:18.235Z,1.50
2023-03-24T13:30:09.814Z,1.60
2023-03-24T13:32:43.951Z,1.52
2023-03-24T13:35:22.217Z,1.33
2023-03-24T13:37:54.844Z,1.10
2023-03-24T13:40:26.445Z,0.80
2023-03-24T13:42:56.870Z,0.77
2023-03-24T13:45:28.239Z,0.60
2023-03-24T13:48:05.410Z,0.60
2023-03-24T13:50:34.549Z,0.40
2023-03-24T13:53:07.251Z,0.52
2023-03-24T13:55:42.520Z,0.80
2023-03-24T13:58:16.849Z,0.70
2023-03-24T14:01:10.129Z,1.00
2023-03-24T14:03:43.491Z,0.82
2023-03-24T14:06:12.825Z,0.93
2023-03-24T14:08:59.318Z,1.23
2023-03-24T14:11:45.634Z,0.77
2023-03-24T14:14:24.538Z,1.10
2023-03-24T14:16:55.173Z,1.23
2023-03-24T14:19:26.384Z,0.70
2023-03-24T14:22:13.689Z,0.90
2023-03-24T14:24:42.883Z,1.63
2023-03-24T14:27:32.491Z,1.38
2023-03-24T14:30:02.425Z,1.00
2023-03-24T14:32:31.521Z,1.40
2023-03-24T14:35:01.417Z,0.90
2023-03-24T14:37:31.141Z,1.30
2023-03-24T14:40:00.978Z,0.98
2023-03-24T14:42:59.494Z,1.17
2023-03-24T14:45:51.483Z,1.20
2023-03-24T14:48:25.326Z,1.38
2023-03-24T14:50:54.977Z,1.35
2023-03-24T14:53:24.050Z,1.50
2023-03-24T14:55:52.657Z,0.82
2023-03-24T14:58:26.660Z,1.38
2023-03-24T15:01:07.267Z,1.58
2023-03-24T15:03:39.617Z,1.42
2023-03-24T15:06:15.928Z,0.85
2023-03-24T15:08:50.816Z,2.55
2023-03-24T15:11:20.594Z,1.58
2023-03-24T15:13:52.079Z,1.10
2023-03-24T15:16:22.632Z,1.33
2023-03-24T15:19:00.644Z,0.82
2023-03-24T15:21:31.806Z,1.38
2023-03-24T15:24:01.481Z,0.98
2023-03-24T15:26:31.174Z,1.08
2023-03-24T15:29:01.980Z,1.20
2023-03-24T15:31:32.889Z,1.80
2023-03-24T15:34:05.497Z,1.10
2023-03-24T15:36:36.433Z,0.80
2023-03-24T15:39:18.241Z,1.00
2023-03-24T15:41:47.233Z,1.05
2023-03-24T15:44:21.026Z,0.93
2023-03-24T15:46:50.527Z,1.23
2023-03-24T15:49:22.750Z,1.08
2023-03-24T15:51:52.184Z,0.98
2023-03-24T15:54:22.423Z,1.48
2023-03-24T15:57:04.606Z,1.15
2023-03-24T15:59:38.787Z,1.23
2023-03-24T16:02:17.230Z,1.38
2023-03-24T16:04:54.329Z,1.40
2023-03-24T16:07:35.886Z,1.33
2023-03-24T16:10:09.012Z,1.42
2023-03-24T16:12:39.284Z,1.45
2023-03-24T16:15:14.858Z,1.20
2023-03-24T16:17:47.435Z,1.10
2023-03-24T16:20:19.723Z,1.25
2023-03-24T16:22:48.776Z,1.23
2023-03-24T16:25:18.257Z,1.42
2023-03-24T16:27:48.901Z,1.67
2023-03-24T16:30:22.756Z,1.00
2023-03-24T16:32:53.537Z,1.30
2023-03-24T16:35:22.314Z,1.00
2023-03-24T16:37:51.064Z,1.30
2023-03-24T16:40:25.960Z,1.48
2023-03-24T16:42:54.469Z,1.30
2023-03-24T16:45:32.877Z,1.45
2023-03-24T16:48:03.719Z,1.02
2023-03-24T16:50:34.052Z,0.85
2023-03-24T16:53:08.953Z,1.33
2023-03-24T16:55:37.912Z,0.73
2023-03-24T16:58:06.782Z,1.02
2023-03-24T17:00:40.065Z,1.35
2023-03-24T17:03:10.387Z,1.23
2023-03-24T17:05:43.413Z,1.27
2023-03-24T17:08:11.999Z,1.02
2023-03-24T17:10:40.972Z,1.02
2023-03-24T17:13:10.294Z,1.15
2023-03-24T17:15:42.461Z,1.65
2023-03-24T17:18:15.720Z,1.52
2023-03-24T17:20:46.582Z,0.95
2023-03-24T17:23:19.670Z,0.82
2023-03-24T17:25:51.961Z,1.25
2023-03-24T17:28:20.683Z,0.95
2023-03-24T17:30:50.631Z,1.50
2023-03-24T17:33:21.656Z,1.58
2023-03-24T17:35:52.839Z,1.30
2023-03-24T17:38:21.278Z,1.52
2023-03-24T17:40:49.830Z,1.27
2023-03-24T17:43:18.691Z,0.95
2023-03-24T17:45:47.191Z,1.13
2023-03-24T17:48:17.336Z,1.52
2023-03-24T17:50:46.228Z,0.90
2023-03-24T17:53:17.233Z,1.17
2023-03-24T17:55:45.772Z,1.05
2023-03-24T17:58:20.946Z,1.20
2023-03-24T18:00:52.028Z,0.77
2023-03-24T18:03:22.707Z,1.15
2023-03-24T18:05:51.319Z,1.15
2023-03-24T18:08:26.470Z,1.35
2023-03-24T18:10:55.015Z,1.75
2023-03-24T18:13:26.359Z,1.05
2023-03-24T18:15:54.765Z,1.30
2023-03-24T18:18:26.839Z,1.20
2023-03-24T18:20:55.986Z,0.93
2023-03-24T18:23:24.604Z,1.58
2023-03-24T18:25:58.505Z,1.20
2023-03-24T18:28:29.623Z,1.27
2023-03-24T18:30:58.320Z,0.82
2023-03-24T18:33:31.442Z,0.98
2023-03-24T18:36:00.127Z,1.15
2023-03-24T18:38:33.511Z,0.90
2023-03-24T18:41:02.856Z,0.90
2023-03-24T18:43:37.932Z,1.05
2023-03-24T18:46:09.494Z,1.50
2023-03-24T18:48:40.363Z,0.90
2023-03-24T18:51:09.537Z,1.05
2023-03-24T18:53:38.716Z,1.08
2023-03-24T18:56:09.338Z,0.80
2023-03-24T18:58:38.923Z,1.65
2023-03-24T19:01:09.812Z,1.05
2023-03-24T19:03:40.962Z,0.88
2023-03-24T19:06:12.961Z,0.80
2023-03-24T19:08:45.435Z,1.05
2023-03-24T19:11:16.934Z,1.85
2023-03-24T19:13:49.788Z,1.30
2023-03-24T19:16:18.847Z,1.17
2023-03-24T19:18:50.632Z,0.95
2023-03-24T19:21:19.535Z,1.00
2023-03-24T19:23:51.251Z,1.33
2023-03-24T19:26:21.077Z,1.23
2023-03-24T19:28:51.501Z,1.05
2023-03-24T19:31:20.572Z,0.80
2023-03-24T19:33:52.121Z,1.00
2023-03-24T19:36:23.001Z,0.73
2023-03-24T19:38:51.466Z,1.30
2023-03-24T19:41:26.652Z,1.15
2023-03-24T19:43:57.508Z,1.35
2023-03-24T19:46:26.279Z,1.10
2023-03-24T19:48:58.105Z,1.42
2023-03-24T19:51:26.696Z,1.35
2023-03-24T19:53:55.187Z,1.20
2023-03-24T19:56:23.668Z,0.90
2023-03-24T19:58:54.772Z,0.80
2023-03-24T20:01:26.161Z,0.95
2023-03-24T20:03:56.274Z,0.80
2023-03-24T20:06:24.972Z,1.08
2023-03-24T20:08:53.881Z,1.00
2023-03-24T20:11:22.987Z,1.08
2023-03-24T20:13:51.583Z,0.68
2023-03-24T20:16:20.116Z,0.73
2023-03-24T20:18:48.648Z,0.82
2023-03-24T20:21:20.474Z,0.70
2023-03-24T20:23:48.856Z,0.82
2023-03-24T20:26:17.673Z,0.90
2023-03-24T20:28:48.291Z,0.52
2023-03-24T20:31:16.778Z,1.42
2023-03-24T20:33:45.326Z,0.70
2023-03-24T20:36:13.810Z,0.95
2023-03-24T20:38:45.508Z,1.50
2023-03-24T20:41:13.986Z,0.95
2023-03-24T20:43:42.460Z,0.75
2023-03-24T20:46:12.060Z,0.45
2023-03-24T20:48:41.245Z,0.82
2023-03-24T20:51:10.309Z,1.10
2023-03-24T20:53:40.626Z,1.35
2023-03-24T20:56:15.629Z,0.82
2023-03-24T20:58:45.312Z,1.10
2023-03-24T21:01:20.487Z,2.15
2023-03-24T21:03:49.086Z,1.10
2023-03-24T21:06:18.264Z,1.10
2023-03-24T21:08:46.794Z,1.38
2023-03-24T21:11:16.569Z,1.13
2023-03-24T21:13:45.093Z,2.28
2023-03-24T21:16:14.107Z,0.90
2023-03-24T21:18:46.769Z,1.67
2023-03-24T21:21:20.607Z,0.88
2023-03-24T21:23:49.044Z,1.10
2023-03-24T21:26:21.213Z,0.60
2023-03-24T21:28:52.745Z,1.70
2023-03-24T21:31:22.841Z,1.70
2023-03-24T21:33:54.061Z,1.27
2023-03-24T21:36:23.082Z,0.73
2023-03-24T21:38:54.043Z,1.25
2023-03-24T21:41:24.200Z,1.30
2023-03-24T21:43:54.619Z,1.05
2023-03-24T21:46:26.456Z,0.70
2023-03-24T21:48:59.519Z,1.23
2023-03-24T21:51:34.467Z,1.10
2023-03-24T21:54:07.003Z,1.42
2023-03-24T21:56:39.224Z,1.00
2023-03-24T21:59:08.103Z,1.10
2023-03-24T22:01:37.091Z,1.42
2023-03-24T22:04:09.109Z,1.27
2023-03-24T22:06:41.051Z,1.45
2023-03-24T22:09:10.622Z,1.30
2023-03-24T22:11:42.899Z,1.00
2023-03-24T22:14:19.173Z,1.13
2023-03-24T22:16:47.890Z,1.20
2023-03-24T22:19:20.798Z,0.85
2023-03-24T22:21:52.049Z,1.13
2023-03-24T22:24:20.589Z,0.82
2023-03-24T22:26:50.579Z,0.80
2023-03-24T22:29:19.097Z,1.02
2023-03-24T22:31:47.930Z,1.42
2023-03-24T22:34:16.693Z,1.02
2023-03-24T22:36:48.589Z,0.95
2023-03-24T22:39:17.009Z,1.13
2023-03-24T22:41:45.597Z,1.00
2023-03-24T22:44:15.572Z,0.75
2023-03-24T22:46:44.309Z,1.15
2023-03-24T22:49:12.722Z,0.73
2023-03-24T22:51:41.144Z,1.25
2023-03-24T22:54:09.901Z,1.50
2023-03-24T22:56:39.337Z,1.80
2023-03-24T22:59:14.451Z,0.98
2023-03-24T23:01:51.462Z,1.67
2023-03-24T23:04:27.814Z,1.88
2023-03-24T23:06:57.525Z,1.13
2023-03-24T23:09:26.748Z,1.15
2023-03-24T23:11:56.154Z,1.83
2023-03-24T23:14:25.555Z,1.02
2023-03-24T23:17:00.108Z,0.98
2023-03-24T23:19:33.151Z,1.77
2023-03-24T23:22:06.930Z,1.08
2023-03-24T23:24:39.626Z,1.85
2023-03-24T23:27:08.948Z,1.30
2023-03-24T23:29:42.251Z,1.75
2023-03-24T23:32:14.596Z,1.15
2023-03-24T23:34:46.040Z,1.50
2023-03-24T23:37:14.718Z,1.15
2023-03-24T23:39:43.276Z,1.45
2023-03-24T23:42:12.040Z,1.48
2023-03-24T23:44:41.069Z,1.25
2023-03-24T23:47:13.860Z,2.00
2023-03-24T23:49:44.413Z,1.30
2023-03-24T23:52:13.034Z,1.20
2023-03-24T23:54:41.933Z,1.52
2023-03-24T23:57:13.362Z,1.33
2023-03-24T23:59:41.897Z,1.33
